sensor_id;sensor_type;location;lat;lon;timestamp;pressure;altitude;pressure_sealevel;temperature;humidity
4598;BME280;62772;48.646;8.906;2023-01-15T00:04:00;95128.22;;;7.06;100.00
4598;BME280;62772;48.646;8.906;2023-01-15T00:09:03;95122.88;;;7.15;100.00
4598;BME280;62772;48.646;8.906;2023-01-15T00:14:04;95125.09;;;7.13;100.00
4598;BME280;62772;48.646;8.906;2023-01-15T00:19:05;95116.19;;;7.18;100.00
4598;BME280;62772;48.646;8.906;2023-01-15T00:24:08;95099.13;;;7.19;100.00
4598;BME280;62772;48.646;8.906;2023-01-15T00:29:27;95099.69;;;7.33;100.00
4598;BME280;62772;48.646;8.906;2023-01-15T00:34:28;95081.28;;;7.37;100.00
4598;BME280;62772;48.646;8.906;2023-01-15T00:39:30;95082.84;;;7.29;100.00
4598;BME280;62772;48.646;8.906;2023-01-15T00:44:30;95074.53;;;7.39;100.00
4598;BME280;62772;48.646;8.906;2023-01-15T00:49:32;95070.47;;;7.42;100.00
4598;BME280;62772;48.646;8.906;2023-01-15T00:54:33;95054.94;;;7.53;100.00
4598;BME280;62772;48.646;8.906;2023-01-15T00:59:33;95062.94;;;7.44;100.00
4598;BME280;62772;48.646;8.906;2023-01-15T01:04:34;95037.13;;;7.53;100.00
4598;BME280;62772;48.646;8.906;2023-01-15T01:09:34;95046.97;;;7.53;100.00
4598;BME280;62772;48.646;8.906;2023-01-15T01:14:36;95037.56;;;7.55;100.00
4598;BME280;62772;48.646;8.906;2023-01-15T01:19:37;95028.50;;;7.56;100.00
4598;BME280;62772;48.646;8.906;2023-01-15T01:24:37;95022.22;;;7.61;100.00
4598;BME280;62772;48.646;8.906;2023-01-15T01:29:40;95020.94;;;7.67;100.00
4598;BME280;62772;48.646;8.906;2023-01-15T01:34:41;95031.84;;;7.74;100.00
4598;BME280;62772;48.646;8.906;2023-01-15T01:39:41;95021.28;;;7.87;100.00
4598;BME280;62772;48.646;8.906;2023-01-15T01:49:45;94997.44;;;7.99;100.00
4598;BME280;62772;48.646;8.906;2023-01-15T01:54:47;94979.53;;;8.08;100.00
4598;BME280;62772;48.646;8.906;2023-01-15T01:59:49;94973.25;;;8.25;100.00
4598;BME280;62772;48.646;8.906;2023-01-15T02:04:50;94958.97;;;8.30;100.00
4598;BME280;62772;48.646;8.906;2023-01-15T02:09:51;94954.38;;;8.39;100.00
4598;BME280;62772;48.646;8.906;2023-01-15T02:20:19;94948.78;;;8.53;100.00
4598;BME280;62772;48.646;8.906;2023-01-15T02:25:32;94929.06;;;8.66;100.00
4598;BME280;62772;48.646;8.906;2023-01-15T02:30:44;94929.28;;;8.74;100.00
4598;BME280;62772;48.646;8.906;2023-01-15T02:35:54;94937.16;;;8.82;100.00
4598;BME280;62772;48.646;8.906;2023-01-15T02:41:06;94930.06;;;8.86;100.00
4598;BME280;62772;48.646;8.906;2023-01-15T02:46:18;94923.63;;;9.00;100.00
4598;BME280;62772;48.646;8.906;2023-01-15T02:51:25;94924.97;;;8.94;100.00
4598;BME280;62772;48.646;8.906;2023-01-15T02:56:29;94910.13;;;8.93;100.00
4598;BME280;62772;48.646;8.906;2023-01-15T03:01:36;94917.44;;;8.96;100.00
4598;BME280;62772;48.646;8.906;2023-01-15T03:06:45;94907.13;;;8.94;100.00
4598;BME280;62772;48.646;8.906;2023-01-15T03:11:59;94899.13;;;8.82;100.00
4598;BME280;62772;48.646;8.906;2023-01-15T03:17:18;94894.47;;;8.91;100.00
4598;BME280;62772;48.646;8.906;2023-01-15T03:27:23;94899.78;;;8.91;100.00
4598;BME280;62772;48.646;8.906;2023-01-15T03:37:37;94896.13;;;8.83;100.00
4598;BME280;62772;48.646;8.906;2023-01-15T03:42:53;94898.69;;;8.80;100.00
4598;BME280;62772;48.646;8.906;2023-01-15T03:48:19;94887.38;;;8.83;100.00
4598;BME280;62772;48.646;8.906;2023-01-15T03:53:30;94901.47;;;8.96;100.00
4598;BME280;62772;48.646;8.906;2023-01-15T03:58:50;94884.59;;;8.92;100.00
4598;BME280;62772;48.646;8.906;2023-01-15T04:03:58;94888.78;;;9.05;100.00
4598;BME280;62772;48.646;8.906;2023-01-15T04:09:04;94889.91;;;8.92;100.00
4598;BME280;62772;48.646;8.906;2023-01-15T04:14:06;94867.06;;;9.03;100.00
4598;BME280;62772;48.646;8.906;2023-01-15T04:19:26;94868.94;;;9.02;100.00
4598;BME280;62772;48.646;8.906;2023-01-15T04:24:34;94845.22;;;8.97;100.00
4598;BME280;62772;48.646;8.906;2023-01-15T04:29:34;94870.59;;;8.95;100.00
4598;BME280;62772;48.646;8.906;2023-01-15T04:34:34;94884.16;;;8.89;100.00
4598;BME280;62772;48.646;8.906;2023-01-15T04:39:35;94860.72;;;8.95;100.00
4598;BME280;62772;48.646;8.906;2023-01-15T04:44:37;94873.59;;;8.93;100.00
4598;BME280;62772;48.646;8.906;2023-01-15T04:49:37;94876.03;;;8.98;100.00
4598;BME280;62772;48.646;8.906;2023-01-15T04:54:38;94865.38;;;8.86;100.00
4598;BME280;62772;48.646;8.906;2023-01-15T04:59:38;94868.06;;;8.86;100.00
4598;BME280;62772;48.646;8.906;2023-01-15T05:04:39;94884.50;;;8.88;100.00
4598;BME280;62772;48.646;8.906;2023-01-15T05:09:39;94883.03;;;8.90;100.00
4598;BME280;62772;48.646;8.906;2023-01-15T05:14:39;94871.41;;;8.83;100.00
4598;BME280;62772;48.646;8.906;2023-01-15T05:19:40;94873.28;;;8.82;100.00
4598;BME280;62772;48.646;8.906;2023-01-15T05:24:40;94866.53;;;8.85;100.00
4598;BME280;62772;48.646;8.906;2023-01-15T05:29:41;94907.56;;;8.84;100.00
4598;BME280;62772;48.646;8.906;2023-01-15T05:34:41;94942.97;;;7.42;100.00
4598;BME280;62772;48.646;8.906;2023-01-15T05:39:42;94951.97;;;6.51;100.00
4598;BME280;62772;48.646;8.906;2023-01-15T05:44:42;94956.88;;;6.32;100.00
4598;BME280;62772;48.646;8.906;2023-01-15T05:49:43;94955.78;;;5.80;100.00
4598;BME280;62772;48.646;8.906;2023-01-15T05:54:43;94960.47;;;5.57;100.00
4598;BME280;62772;48.646;8.906;2023-01-15T05:59:44;94974.78;;;5.56;100.00
4598;BME280;62772;48.646;8.906;2023-01-15T06:04:44;94960.13;;;5.41;100.00
4598;BME280;62772;48.646;8.906;2023-01-15T06:09:44;94963.25;;;5.43;100.00
4598;BME280;62772;48.646;8.906;2023-01-15T06:14:45;94971.81;;;5.40;100.00
4598;BME280;62772;48.646;8.906;2023-01-15T06:19:45;94975.22;;;5.23;100.00
4598;BME280;62772;48.646;8.906;2023-01-15T06:24:46;94992.16;;;5.22;100.00
4598;BME280;62772;48.646;8.906;2023-01-15T06:29:46;95010.03;;;5.17;100.00
4598;BME280;62772;48.646;8.906;2023-01-15T06:34:46;95019.19;;;5.02;100.00
4598;BME280;62772;48.646;8.906;2023-01-15T06:39:47;95015.56;;;4.89;100.00
4598;BME280;62772;48.646;8.906;2023-01-15T06:44:47;95018.13;;;4.71;100.00
4598;BME280;62772;48.646;8.906;2023-01-15T06:50:07;95030.06;;;4.69;100.00
4598;BME280;62772;48.646;8.906;2023-01-15T06:55:08;95032.81;;;4.55;100.00
4598;BME280;62772;48.646;8.906;2023-01-15T07:00:10;95051.09;;;4.43;100.00
4598;BME280;62772;48.646;8.906;2023-01-15T07:05:11;95069.22;;;4.35;100.00
4598;BME280;62772;48.646;8.906;2023-01-15T07:10:11;95072.28;;;4.29;100.00
4598;BME280;62772;48.646;8.906;2023-01-15T07:15:14;95092.41;;;4.16;100.00
4598;BME280;62772;48.646;8.906;2023-01-15T07:20:14;95107.09;;;4.08;100.00
4598;BME280;62772;48.646;8.906;2023-01-15T07:25:15;95113.25;;;4.04;100.00
4598;BME280;62772;48.646;8.906;2023-01-15T07:30:19;95109.75;;;3.94;100.00
4598;BME280;62772;48.646;8.906;2023-01-15T07:35:19;95127.41;;;3.85;100.00
4598;BME280;62772;48.646;8.906;2023-01-15T07:40:19;95140.09;;;3.83;100.00
4598;BME280;62772;48.646;8.906;2023-01-15T07:45:20;95143.31;;;3.80;100.00
4598;BME280;62772;48.646;8.906;2023-01-15T07:50:39;95167.38;;;3.92;100.00
4598;BME280;62772;48.646;8.906;2023-01-15T07:55:39;95177.81;;;4.25;100.00
4598;BME280;62772;48.646;8.906;2023-01-15T08:00:40;95202.53;;;4.43;100.00
4598;BME280;62772;48.646;8.906;2023-01-15T08:05:40;95196.06;;;3.85;100.00
4598;BME280;62772;48.646;8.906;2023-01-15T08:10:41;95207.66;;;4.26;100.00
4598;BME280;62772;48.646;8.906;2023-01-15T08:16:00;95215.72;;;3.79;100.00
4598;BME280;62772;48.646;8.906;2023-01-15T08:21:00;95212.50;;;3.82;100.00
4598;BME280;62772;48.646;8.906;2023-01-15T08:26:01;95238.41;;;3.66;100.00
4598;BME280;62772;48.646;8.906;2023-01-15T08:31:04;95250.72;;;4.26;100.00
4598;BME280;62772;48.646;8.906;2023-01-15T08:36:05;95268.38;;;4.17;100.00
4598;BME280;62772;48.646;8.906;2023-01-15T08:41:05;95276.88;;;4.14;100.00
4598;BME280;62772;48.646;8.906;2023-01-15T08:46:08;95279.31;;;4.10;100.00
4598;BME280;62772;48.646;8.906;2023-01-15T08:51:09;95304.03;;;3.73;100.00
4598;BME280;62772;48.646;8.906;2023-01-15T08:56:15;95319.50;;;3.79;100.00
4598;BME280;62772;48.646;8.906;2023-01-15T09:01:16;95316.09;;;3.79;100.00
4598;BME280;62772;48.646;8.906;2023-01-15T09:06:16;95315.94;;;4.03;100.00
4598;BME280;62772;48.646;8.906;2023-01-15T09:11:17;95305.03;;;3.91;100.00
4598;BME280;62772;48.646;8.906;2023-01-15T09:16:17;95302.81;;;3.98;100.00
4598;BME280;62772;48.646;8.906;2023-01-15T09:21:18;95336.75;;;3.91;100.00
4598;BME280;62772;48.646;8.906;2023-01-15T09:26:34;95347.44;;;4.13;100.00
4598;BME280;62772;48.646;8.906;2023-01-15T09:31:35;95353.84;;;3.79;100.00
4598;BME280;62772;48.646;8.906;2023-01-15T09:36:36;95358.72;;;3.72;100.00
4598;BME280;62772;48.646;8.906;2023-01-15T09:47:13;95371.38;;;3.56;100.00
4598;BME280;62772;48.646;8.906;2023-01-15T09:57:43;95391.63;;;3.23;100.00
4598;BME280;62772;48.646;8.906;2023-01-15T10:02:50;95379.94;;;3.29;100.00
4598;BME280;62772;48.646;8.906;2023-01-15T10:08:16;95384.72;;;3.08;100.00
4598;BME280;62772;48.646;8.906;2023-01-15T10:18:29;95406.97;;;3.40;100.00
4598;BME280;62772;48.646;8.906;2023-01-15T10:23:33;95434.66;;;3.23;100.00
4598;BME280;62772;48.646;8.906;2023-01-15T10:28:57;95421.16;;;3.06;100.00
4598;BME280;62772;48.646;8.906;2023-01-15T10:34:20;95426.81;;;2.94;100.00
4598;BME280;62772;48.646;8.906;2023-01-15T10:44:35;95415.88;;;3.06;100.00
4598;BME280;62772;48.646;8.906;2023-01-15T10:49:39;95439.13;;;3.04;100.00
4598;BME280;62772;48.646;8.906;2023-01-15T10:54:45;95441.66;;;2.66;100.00
4598;BME280;62772;48.646;8.906;2023-01-15T10:59:56;95449.84;;;2.88;100.00
4598;BME280;62772;48.646;8.906;2023-01-15T11:04:57;95451.97;;;2.62;100.00
4598;BME280;62772;48.646;8.906;2023-01-15T11:10:02;95476.97;;;2.41;100.00
4598;BME280;62772;48.646;8.906;2023-01-15T11:15:13;95493.78;;;2.15;100.00
4598;BME280;62772;48.646;8.906;2023-01-15T11:25:34;95525.72;;;1.64;100.00
4598;BME280;62772;48.646;8.906;2023-01-15T11:30:36;95529.34;;;1.73;100.00
4598;BME280;62772;48.646;8.906;2023-01-15T11:35:37;95532.50;;;1.70;100.00
4598;BME280;62772;48.646;8.906;2023-01-15T11:40:37;95524.25;;;1.37;100.00
4598;BME280;62772;48.646;8.906;2023-01-15T11:45:49;95515.28;;;1.38;100.00
4598;BME280;62772;48.646;8.906;2023-01-15T11:51:14;95532.56;;;1.60;100.00
4598;BME280;62772;48.646;8.906;2023-01-15T11:56:23;95525.09;;;1.77;100.00
4598;BME280;62772;48.646;8.906;2023-01-15T12:06:28;95537.22;;;1.73;100.00
4598;BME280;62772;48.646;8.906;2023-01-15T12:11:34;95540.81;;;1.93;100.00
4598;BME280;62772;48.646;8.906;2023-01-15T12:16:47;95543.50;;;1.83;100.00
4598;BME280;62772;48.646;8.906;2023-01-15T12:32:17;95527.06;;;2.01;100.00
4598;BME280;62772;48.646;8.906;2023-01-15T12:37:23;95526.38;;;1.85;100.00
4598;BME280;62772;48.646;8.906;2023-01-15T12:42:26;95531.06;;;1.93;100.00
4598;BME280;62772;48.646;8.906;2023-01-15T12:53:45;95545.81;;;1.89;100.00
4598;BME280;62772;48.646;8.906;2023-01-15T13:04:04;95560.13;;;2.17;100.00
4598;BME280;62772;48.646;8.906;2023-01-15T13:14:18;95560.31;;;2.31;100.00
4598;BME280;62772;48.646;8.906;2023-01-15T13:30:14;95575.06;;;2.32;100.00
4598;BME280;62772;48.646;8.906;2023-01-15T13:35:32;95579.81;;;2.30;100.00
4598;BME280;62772;48.646;8.906;2023-01-15T13:40:39;95593.34;;;2.18;100.00
4598;BME280;62772;48.646;8.906;2023-01-15T13:45:42;95593.78;;;2.26;100.00
4598;BME280;62772;48.646;8.906;2023-01-15T13:50:55;95599.97;;;2.50;100.00
4598;BME280;62772;48.646;8.906;2023-01-15T13:56:04;95604.75;;;2.43;100.00
4598;BME280;62772;48.646;8.906;2023-01-15T14:06:08;95604.91;;;2.57;100.00
4598;BME280;62772;48.646;8.906;2023-01-15T14:22:46;95617.81;;;2.59;100.00
4598;BME280;62772;48.646;8.906;2023-01-15T14:33:15;95623.81;;;2.69;100.00
4598;BME280;62772;48.646;8.906;2023-01-15T14:38:23;95627.72;;;2.72;100.00
4598;BME280;62772;48.646;8.906;2023-01-15T14:43:28;95630.69;;;2.65;100.00
4598;BME280;62772;48.646;8.906;2023-01-15T14:53:32;95623.91;;;2.54;100.00
4598;BME280;62772;48.646;8.906;2023-01-15T14:58:44;95620.28;;;2.45;100.00
4598;BME280;62772;48.646;8.906;2023-01-15T15:03:53;95632.41;;;2.46;100.00
4598;BME280;62772;48.646;8.906;2023-01-15T15:09:01;95631.81;;;2.54;100.00
4598;BME280;62772;48.646;8.906;2023-01-15T15:14:05;95647.19;;;2.42;100.00
4598;BME280;62772;48.646;8.906;2023-01-15T15:24:32;95667.78;;;2.34;100.00
4598;BME280;62772;48.646;8.906;2023-01-15T15:29:34;95681.50;;;2.31;100.00
4598;BME280;62772;48.646;8.906;2023-01-15T15:34:37;95664.88;;;2.36;100.00
4598;BME280;62772;48.646;8.906;2023-01-15T15:39:41;95654.75;;;2.14;100.00
4598;BME280;62772;48.646;8.906;2023-01-15T15:44:52;95657.97;;;2.01;100.00
4598;BME280;62772;48.646;8.906;2023-01-15T15:50:24;95649.19;;;2.15;100.00
4598;BME280;62772;48.646;8.906;2023-01-15T15:55:35;95642.97;;;1.91;100.00
4598;BME280;62772;48.646;8.906;2023-01-15T16:00:39;95641.44;;;1.90;100.00
4598;BME280;62772;48.646;8.906;2023-01-15T16:05:54;95638.28;;;1.83;100.00
4598;BME280;62772;48.646;8.906;2023-01-15T16:11:04;95632.22;;;1.87;100.00
4598;BME280;62772;48.646;8.906;2023-01-15T16:16:06;95627.72;;;1.88;100.00
4598;BME280;62772;48.646;8.906;2023-01-15T16:21:08;95620.63;;;1.88;100.00
4598;BME280;62772;48.646;8.906;2023-01-15T16:26:21;95617.19;;;1.88;100.00
4598;BME280;62772;48.646;8.906;2023-01-15T16:31:23;95624.38;;;1.72;100.00
4598;BME280;62772;48.646;8.906;2023-01-15T16:36:26;95609.88;;;1.74;100.00
4598;BME280;62772;48.646;8.906;2023-01-15T16:41:29;95614.09;;;1.70;100.00
4598;BME280;62772;48.646;8.906;2023-01-15T16:46:55;95611.72;;;1.79;100.00
4598;BME280;62772;48.646;8.906;2023-01-15T16:52:00;95607.38;;;1.49;100.00
4598;BME280;62772;48.646;8.906;2023-01-15T16:57:03;95607.91;;;1.45;100.00
4598;BME280;62772;48.646;8.906;2023-01-15T17:02:15;95606.50;;;1.69;100.00
4598;BME280;62772;48.646;8.906;2023-01-15T17:07:19;95596.88;;;1.33;100.00
4598;BME280;62772;48.646;8.906;2023-01-15T17:12:28;95603.94;;;1.43;100.00
4598;BME280;62772;48.646;8.906;2023-01-15T17:17:30;95599.75;;;1.47;100.00
4598;BME280;62772;48.646;8.906;2023-01-15T17:22:31;95591.59;;;1.43;100.00
4598;BME280;62772;48.646;8.906;2023-01-15T17:27:32;95591.56;;;1.54;100.00
4598;BME280;62772;48.646;8.906;2023-01-15T17:32:33;95592.94;;;1.36;100.00
4598;BME280;62772;48.646;8.906;2023-01-15T17:37:35;95591.88;;;1.32;100.00
4598;BME280;62772;48.646;8.906;2023-01-15T17:42:35;95580.31;;;1.33;100.00
4598;BME280;62772;48.646;8.906;2023-01-15T17:47:36;95578.19;;;1.35;100.00
4598;BME280;62772;48.646;8.906;2023-01-15T17:52:36;95568.22;;;1.32;100.00
4598;BME280;62772;48.646;8.906;2023-01-15T17:57:37;95570.34;;;1.30;100.00
4598;BME280;62772;48.646;8.906;2023-01-15T18:02:56;95572.94;;;1.35;100.00
4598;BME280;62772;48.646;8.906;2023-01-15T18:08:15;95569.31;;;1.20;100.00
4598;BME280;62772;48.646;8.906;2023-01-15T18:13:17;95572.72;;;1.26;100.00
4598;BME280;62772;48.646;8.906;2023-01-15T18:18:18;95572.19;;;1.19;100.00
4598;BME280;62772;48.646;8.906;2023-01-15T18:23:19;95572.44;;;1.27;100.00
4598;BME280;62772;48.646;8.906;2023-01-15T18:28:19;95562.66;;;1.38;100.00
4598;BME280;62772;48.646;8.906;2023-01-15T18:33:20;95561.94;;;1.17;100.00
4598;BME280;62772;48.646;8.906;2023-01-15T18:38:21;95562.19;;;1.26;100.00
4598;BME280;62772;48.646;8.906;2023-01-15T18:43:21;95563.53;;;1.18;100.00
4598;BME280;62772;48.646;8.906;2023-01-15T18:48:40;95555.88;;;1.22;100.00
4598;BME280;62772;48.646;8.906;2023-01-15T18:53:41;95561.63;;;1.34;100.00
4598;BME280;62772;48.646;8.906;2023-01-15T18:58:41;95557.47;;;1.23;100.00
4598;BME280;62772;48.646;8.906;2023-01-15T19:03:42;95564.81;;;1.31;100.00
4598;BME280;62772;48.646;8.906;2023-01-15T19:08:42;95560.28;;;1.37;100.00
4598;BME280;62772;48.646;8.906;2023-01-15T19:13:43;95543.47;;;1.38;100.00
4598;BME280;62772;48.646;8.906;2023-01-15T19:19:03;95539.31;;;1.26;100.00
4598;BME280;62772;48.646;8.906;2023-01-15T19:24:04;95544.81;;;1.35;100.00
4598;BME280;62772;48.646;8.906;2023-01-15T19:29:06;95531.66;;;1.30;100.00
4598;BME280;62772;48.646;8.906;2023-01-15T19:34:06;95521.38;;;1.39;100.00
4598;BME280;62772;48.646;8.906;2023-01-15T19:39:09;95530.63;;;1.21;100.00
4598;BME280;62772;48.646;8.906;2023-01-15T19:44:10;95518.84;;;1.13;100.00
4598;BME280;62772;48.646;8.906;2023-01-15T19:49:34;95502.72;;;1.30;100.00
4598;BME280;62772;48.646;8.906;2023-01-15T19:54:53;95498.06;;;1.06;100.00
4598;BME280;62772;48.646;8.906;2023-01-15T19:59:56;95483.13;;;0.97;100.00
4598;BME280;62772;48.646;8.906;2023-01-15T20:04:57;95472.38;;;0.88;100.00
4598;BME280;62772;48.646;8.906;2023-01-15T20:09:57;95459.28;;;0.83;100.00
4598;BME280;62772;48.646;8.906;2023-01-15T20:14:58;95446.47;;;0.61;100.00
4598;BME280;62772;48.646;8.906;2023-01-15T20:19:59;95447.28;;;0.51;100.00
4598;BME280;62772;48.646;8.906;2023-01-15T20:24:59;95422.06;;;0.45;100.00
4598;BME280;62772;48.646;8.906;2023-01-15T20:30:02;95409.72;;;0.40;100.00
4598;BME280;62772;48.646;8.906;2023-01-15T20:35:12;95401.34;;;0.28;100.00
4598;BME280;62772;48.646;8.906;2023-01-15T20:40:14;95385.53;;;0.38;100.00
4598;BME280;62772;48.646;8.906;2023-01-15T20:45:15;95380.56;;;0.42;100.00
4598;BME280;62772;48.646;8.906;2023-01-15T20:50:16;95369.31;;;0.26;100.00
4598;BME280;62772;48.646;8.906;2023-01-15T20:55:18;95355.59;;;0.39;100.00
4598;BME280;62772;48.646;8.906;2023-01-15T21:00:19;95371.19;;;0.05;100.00
4598;BME280;62772;48.646;8.906;2023-01-15T21:05:20;95356.72;;;0.12;100.00
4598;BME280;62772;48.646;8.906;2023-01-15T21:10:22;95347.56;;;-0.01;100.00
4598;BME280;62772;48.646;8.906;2023-01-15T21:15:24;95340.97;;;0.12;100.00
4598;BME280;62772;48.646;8.906;2023-01-15T21:20:24;95344.97;;;-0.06;100.00
4598;BME280;62772;48.646;8.906;2023-01-15T21:25:25;95325.28;;;-0.03;100.00
4598;BME280;62772;48.646;8.906;2023-01-15T21:30:26;95306.13;;;-0.14;100.00
4598;BME280;62772;48.646;8.906;2023-01-15T21:35:26;95308.22;;;-0.06;100.00
4598;BME280;62772;48.646;8.906;2023-01-15T21:40:27;95298.50;;;-0.10;100.00
4598;BME280;62772;48.646;8.906;2023-01-15T21:45:27;95290.88;;;0.04;100.00
4598;BME280;62772;48.646;8.906;2023-01-15T21:50:28;95293.00;;;-0.09;100.00
4598;BME280;62772;48.646;8.906;2023-01-15T21:55:28;95291.38;;;0.06;100.00
4598;BME280;62772;48.646;8.906;2023-01-15T22:00:29;95278.50;;;0.09;100.00
4598;BME280;62772;48.646;8.906;2023-01-15T22:05:29;95270.66;;;-0.01;100.00
4598;BME280;62772;48.646;8.906;2023-01-15T22:10:30;95274.06;;;-0.01;100.00
4598;BME280;62772;48.646;8.906;2023-01-15T22:15:30;95271.25;;;-0.20;100.00
4598;BME280;62772;48.646;8.906;2023-01-15T22:20:31;95249.97;;;-0.13;100.00
4598;BME280;62772;48.646;8.906;2023-01-15T22:25:32;95238.97;;;-0.20;100.00
4598;BME280;62772;48.646;8.906;2023-01-15T22:30:33;95239.47;;;-0.08;100.00
4598;BME280;62772;48.646;8.906;2023-01-15T22:35:36;95227.63;;;0.00;100.00
4598;BME280;62772;48.646;8.906;2023-01-15T22:40:37;95228.16;;;-0.03;100.00
4598;BME280;62772;48.646;8.906;2023-01-15T22:45:37;95236.56;;;-0.11;100.00
4598;BME280;62772;48.646;8.906;2023-01-15T22:50:38;95224.22;;;-0.06;100.00
4598;BME280;62772;48.646;8.906;2023-01-15T22:55:38;95217.09;;;0.05;100.00
4598;BME280;62772;48.646;8.906;2023-01-15T23:00:38;95211.69;;;-0.19;100.00
4598;BME280;62772;48.646;8.906;2023-01-15T23:05:39;95197.16;;;-0.01;100.00
4598;BME280;62772;48.646;8.906;2023-01-15T23:10:41;95182.44;;;0.03;100.00
4598;BME280;62772;48.646;8.906;2023-01-15T23:15:43;95166.22;;;-0.04;100.00
4598;BME280;62772;48.646;8.906;2023-01-15T23:20:44;95157.28;;;-0.08;100.00
4598;BME280;62772;48.646;8.906;2023-01-15T23:25:44;95150.22;;;-0.08;100.00
4598;BME280;62772;48.646;8.906;2023-01-15T23:30:44;95154.38;;;0.04;100.00
4598;BME280;62772;48.646;8.906;2023-01-15T23:35:45;95138.38;;;0.00;100.00
4598;BME280;62772;48.646;8.906;2023-01-15T23:40:46;95136.75;;;0.04;100.00
4598;BME280;62772;48.646;8.906;2023-01-15T23:45:46;95126.97;;;0.20;100.00
4598;BME280;62772;48.646;8.906;2023-01-15T23:51:05;95119.50;;;-0.07;100.00
4598;BME280;62772;48.646;8.906;2023-01-15T23:56:06;95107.31;;;0.12;100.00
